sensor_id;sensor_type;location;lat;lon;timestamp;pressure;altitude;pressure_sealevel;temperature;humidity
78123;BME280;67376;44.802;10.332;2023-11-21T00:01:56;100474.53;;;20.94;41.91
78123;BME280;67376;44.802;10.332;2023-11-21T00:04:22;100472.63;;;20.95;41.38
78123;BME280;67376;44.802;10.332;2023-11-21T00:06:47;100477.25;;;20.94;42.08
78123;BME280;67376;44.802;10.332;2023-11-21T00:09:13;100479.94;;;20.94;41.85
78123;BME280;67376;44.802;10.332;2023-11-21T00:11:40;100488.91;;;20.95;41.80
78123;BME280;67376;44.802;10.332;2023-11-21T00:14:05;100476.41;;;20.94;41.37
78123;BME280;67376;44.802;10.332;2023-11-21T00:16:31;100465.56;;;20.94;41.84
78123;BME280;67376;44.802;10.332;2023-11-21T00:18:56;100457.41;;;20.94;41.86
78123;BME280;67376;44.802;10.332;2023-11-21T00:21:21;100445.75;;;20.93;41.72
78123;BME280;67376;44.802;10.332;2023-11-21T00:23:46;100434.06;;;20.93;42.01
78123;BME280;67376;44.802;10.332;2023-11-21T00:26:11;100413.16;;;20.93;41.94
78123;BME280;67376;44.802;10.332;2023-11-21T00:28:37;100404.22;;;20.93;41.86
78123;BME280;67376;44.802;10.332;2023-11-21T00:31:02;100390.88;;;20.91;41.43
78123;BME280;67376;44.802;10.332;2023-11-21T00:33:29;100392.78;;;20.91;42.10
78123;BME280;67376;44.802;10.332;2023-11-21T00:35:54;100402.56;;;20.92;41.96
78123;BME280;67376;44.802;10.332;2023-11-21T00:38:19;100409.88;;;20.91;41.95
78123;BME280;67376;44.802;10.332;2023-11-21T00:40:45;100410.94;;;20.90;41.97
78123;BME280;67376;44.802;10.332;2023-11-21T00:43:10;100429.13;;;20.90;41.42
78123;BME280;67376;44.802;10.332;2023-11-21T00:45:35;100414.50;;;20.91;41.93
78123;BME280;67376;44.802;10.332;2023-11-21T00:48:01;100419.09;;;20.90;42.06
78123;BME280;67376;44.802;10.332;2023-11-21T00:50:27;100419.91;;;20.91;41.97
78123;BME280;67376;44.802;10.332;2023-11-21T00:52:52;100428.31;;;20.89;41.90
78123;BME280;67376;44.802;10.332;2023-11-21T00:55:17;100436.44;;;20.89;42.02
78123;BME280;67376;44.802;10.332;2023-11-21T00:57:43;100436.44;;;20.89;41.74
78123;BME280;67376;44.802;10.332;2023-11-21T01:00:08;100418.53;;;20.88;41.36
78123;BME280;67376;44.802;10.332;2023-11-21T01:02:46;100418.53;;;20.88;41.56
78123;BME280;67376;44.802;10.332;2023-11-21T01:05:12;100417.44;;;20.89;41.83
78123;BME280;67376;44.802;10.332;2023-11-21T01:07:37;100412.03;;;20.89;41.46
78123;BME280;67376;44.802;10.332;2023-11-21T01:10:03;100405.78;;;20.89;41.87
78123;BME280;67376;44.802;10.332;2023-11-21T01:12:30;100418.53;;;20.88;42.03
78123;BME280;67376;44.802;10.332;2023-11-21T01:14:56;100431.25;;;20.88;42.02
78123;BME280;67376;44.802;10.332;2023-11-21T01:17:22;100438.34;;;20.89;41.85
78123;BME280;67376;44.802;10.332;2023-11-21T01:19:48;100433.97;;;20.88;41.65
78123;BME280;67376;44.802;10.332;2023-11-21T01:22:13;100441.28;;;20.87;41.64
78123;BME280;67376;44.802;10.332;2023-11-21T01:24:38;100435.03;;;20.87;42.13
78123;BME280;67376;44.802;10.332;2023-11-21T01:27:03;100433.16;;;20.87;41.63
78123;BME280;67376;44.802;10.332;2023-11-21T01:29:29;100429.63;;;20.87;42.04
78123;BME280;67376;44.802;10.332;2023-11-21T01:31:55;100436.69;;;20.88;41.70
78123;BME280;67376;44.802;10.332;2023-11-21T01:34:22;100431.25;;;20.88;42.12
78123;BME280;67376;44.802;10.332;2023-11-21T01:36:47;100429.63;;;20.87;42.07
78123;BME280;67376;44.802;10.332;2023-11-21T01:39:12;100435.03;;;20.87;41.94
78123;BME280;67376;44.802;10.332;2023-11-21T01:41:40;100441.53;;;20.86;41.44
78123;BME280;67376;44.802;10.332;2023-11-21T01:44:05;100434.22;;;20.86;41.71
78123;BME280;67376;44.802;10.332;2023-11-21T01:46:34;100432.56;;;20.85;41.63
78123;BME280;67376;44.802;10.332;2023-11-21T01:49:00;100429.03;;;20.85;41.50
78123;BME280;67376;44.802;10.332;2023-11-21T01:51:25;100425.50;;;20.84;42.08
78123;BME280;67376;44.802;10.332;2023-11-21T01:53:51;100433.41;;;20.86;42.01
78123;BME280;67376;44.802;10.332;2023-11-21T01:56:17;100427.16;;;20.85;41.50
78123;BME280;67376;44.802;10.332;2023-11-21T01:58:43;100427.16;;;20.85;41.74
78123;BME280;67376;44.802;10.332;2023-11-21T02:01:08;100424.69;;;20.84;41.95
78123;BME280;67376;44.802;10.332;2023-11-21T02:03:35;100424.69;;;20.84;41.67
78123;BME280;67376;44.802;10.332;2023-11-21T02:06:00;100420.06;;;20.84;41.93
78123;BME280;67376;44.802;10.332;2023-11-21T02:08:25;100424.69;;;20.84;41.61
78123;BME280;67376;44.802;10.332;2023-11-21T02:10:52;100425.50;;;20.84;42.00
78123;BME280;67376;44.802;10.332;2023-11-21T02:13:17;100423.84;;;20.83;41.88
78123;BME280;67376;44.802;10.332;2023-11-21T02:15:42;100420.31;;;20.83;41.82
78123;BME280;67376;44.802;10.332;2023-11-21T02:18:07;100407.59;;;20.83;41.75
78123;BME280;67376;44.802;10.332;2023-11-21T02:20:35;100415.72;;;20.83;41.84
78123;BME280;67376;44.802;10.332;2023-11-21T02:23:02;100423.84;;;20.83;41.83
78123;BME280;67376;44.802;10.332;2023-11-21T02:25:31;100419.50;;;20.82;41.67
78123;BME280;67376;44.802;10.332;2023-11-21T02:27:57;100419.50;;;20.82;41.70
78123;BME280;67376;44.802;10.332;2023-11-21T02:30:22;100405.94;;;20.82;41.92
78123;BME280;67376;44.802;10.332;2023-11-21T02:32:48;100404.28;;;20.81;41.71
78123;BME280;67376;44.802;10.332;2023-11-21T02:35:13;100398.88;;;20.81;41.86
78123;BME280;67376;44.802;10.332;2023-11-21T02:37:39;100401.56;;;20.81;42.03
78123;BME280;67376;44.802;10.332;2023-11-21T02:40:06;100396.97;;;20.82;41.84
78123;BME280;67376;44.802;10.332;2023-11-21T02:42:31;100403.47;;;20.81;41.50
78123;BME280;67376;44.802;10.332;2023-11-21T02:44:57;100394.50;;;20.80;42.07
78123;BME280;67376;44.802;10.332;2023-11-21T02:47:22;100384.47;;;20.81;41.68
78123;BME280;67376;44.802;10.332;2023-11-21T02:49:48;100383.66;;;20.80;42.05
78123;BME280;67376;44.802;10.332;2023-11-21T02:52:13;100380.94;;;20.80;42.07
78123;BME280;67376;44.802;10.332;2023-11-21T02:54:38;100377.69;;;20.78;42.10
78123;BME280;67376;44.802;10.332;2023-11-21T02:57:04;100381.22;;;20.79;42.01
78123;BME280;67376;44.802;10.332;2023-11-21T02:59:29;100378.50;;;20.79;41.63
78123;BME280;67376;44.802;10.332;2023-11-21T03:01:54;100375.78;;;20.79;42.07
78123;BME280;67376;44.802;10.332;2023-11-21T03:04:21;100381.22;;;20.79;42.06
78123;BME280;67376;44.802;10.332;2023-11-21T03:06:47;100370.38;;;20.79;41.65
78123;BME280;67376;44.802;10.332;2023-11-21T03:09:12;100379.31;;;20.79;42.07
78123;BME280;67376;44.802;10.332;2023-11-21T03:11:37;100374.16;;;20.77;42.12
78123;BME280;67376;44.802;10.332;2023-11-21T03:14:02;100367.06;;;20.76;41.94
78123;BME280;67376;44.802;10.332;2023-11-21T03:16:28;100360.59;;;20.77;41.25
78123;BME280;67376;44.802;10.332;2023-11-21T03:18:54;100356.22;;;20.76;42.11
78123;BME280;67376;44.802;10.332;2023-11-21T03:21:19;100359.75;;;20.77;42.03
78123;BME280;67376;44.802;10.332;2023-11-21T03:23:44;100349.41;;;20.74;41.32
78123;BME280;67376;44.802;10.332;2023-11-21T03:26:13;100354.34;;;20.77;41.43
78123;BME280;67376;44.802;10.332;2023-11-21T03:28:38;100363.53;;;20.76;41.53
78123;BME280;67376;44.802;10.332;2023-11-21T03:31:04;100358.38;;;20.74;42.04
78123;BME280;67376;44.802;10.332;2023-11-21T03:33:29;100354.56;;;20.75;41.65
78123;BME280;67376;44.802;10.332;2023-11-21T03:35:54;100348.34;;;20.75;41.45
78123;BME280;67376;44.802;10.332;2023-11-21T03:38:20;100354.56;;;20.75;41.97
78123;BME280;67376;44.802;10.332;2023-11-21T03:40:45;100356.47;;;20.75;41.43
78123;BME280;67376;44.802;10.332;2023-11-21T03:43:10;100348.34;;;20.75;41.89
78123;BME280;67376;44.802;10.332;2023-11-21T03:45:36;100358.38;;;20.74;41.96
78123;BME280;67376;44.802;10.332;2023-11-21T03:48:01;100341.25;;;20.74;42.14
78123;BME280;67376;44.802;10.332;2023-11-21T03:50:28;100344.78;;;20.74;41.92
78123;BME280;67376;44.802;10.332;2023-11-21T03:52:53;100343.97;;;20.74;41.35
78123;BME280;67376;44.802;10.332;2023-11-21T03:55:18;100349.41;;;20.74;41.59
78123;BME280;67376;44.802;10.332;2023-11-21T03:57:43;100349.41;;;20.74;41.57
78123;BME280;67376;44.802;10.332;2023-11-21T04:00:09;100349.41;;;20.74;42.09
78123;BME280;67376;44.802;10.332;2023-11-21T04:02:35;100359.44;;;20.73;41.90
78123;BME280;67376;44.802;10.332;2023-11-21T04:05:00;100345.03;;;20.73;41.65
78123;BME280;67376;44.802;10.332;2023-11-21T04:07:25;100346.94;;;20.72;41.98
78123;BME280;67376;44.802;10.332;2023-11-21T04:09:50;100350.47;;;20.73;42.00
78123;BME280;67376;44.802;10.332;2023-11-21T04:12:16;100346.94;;;20.72;41.84
78123;BME280;67376;44.802;10.332;2023-11-21T04:14:41;100350.47;;;20.73;41.25
78123;BME280;67376;44.802;10.332;2023-11-21T04:17:06;100356.13;;;20.71;42.00
78123;BME280;67376;44.802;10.332;2023-11-21T04:19:32;100365.94;;;20.72;41.50
78123;BME280;67376;44.802;10.332;2023-11-21T04:21:57;100371.34;;;20.72;41.53
78123;BME280;67376;44.802;10.332;2023-11-21T04:24:22;100377.03;;;20.71;41.29
78123;BME280;67376;44.802;10.332;2023-11-21T04:26:48;100365.09;;;20.72;41.70
78123;BME280;67376;44.802;10.332;2023-11-21T04:29:13;100360.50;;;20.72;41.72
78123;BME280;67376;44.802;10.332;2023-11-21T04:31:38;100372.41;;;20.71;41.83
78123;BME280;67376;44.802;10.332;2023-11-21T04:34:03;100367.00;;;20.71;41.56
78123;BME280;67376;44.802;10.332;2023-11-21T04:36:29;100352.59;;;20.71;41.49
78123;BME280;67376;44.802;10.332;2023-11-21T04:38:55;100353.44;;;20.71;41.32
78123;BME280;67376;44.802;10.332;2023-11-21T04:41:21;100354.50;;;20.70;41.75
78123;BME280;67376;44.802;10.332;2023-11-21T04:43:46;100359.94;;;20.70;41.47
78123;BME280;67376;44.802;10.332;2023-11-21T04:46:11;100354.50;;;20.70;41.62
78123;BME280;67376;44.802;10.332;2023-11-21T04:48:36;100356.38;;;20.70;41.70
78123;BME280;67376;44.802;10.332;2023-11-21T04:51:01;100359.09;;;20.70;41.31
78123;BME280;67376;44.802;10.332;2023-11-21T04:53:29;100358.28;;;20.69;41.72
78123;BME280;67376;44.802;10.332;2023-11-21T04:55:54;100363.72;;;20.69;41.87
78123;BME280;67376;44.802;10.332;2023-11-21T04:58:19;100363.72;;;20.69;41.40
78123;BME280;67376;44.802;10.332;2023-11-21T05:00:45;100365.59;;;20.69;41.52
78123;BME280;67376;44.802;10.332;2023-11-21T05:03:11;100364.78;;;20.68;42.08
78123;BME280;67376;44.802;10.332;2023-11-21T05:05:37;100369.13;;;20.69;41.75
78123;BME280;67376;44.802;10.332;2023-11-21T05:08:02;100373.72;;;20.69;42.12
78123;BME280;67376;44.802;10.332;2023-11-21T05:10:28;100362.06;;;20.68;41.90
78123;BME280;67376;44.802;10.332;2023-11-21T05:12:54;100362.88;;;20.69;41.68
78123;BME280;67376;44.802;10.332;2023-11-21T05:15:20;100364.78;;;20.68;41.46
78123;BME280;67376;44.802;10.332;2023-11-21T05:17:46;100362.06;;;20.68;41.18
78123;BME280;67376;44.802;10.332;2023-11-21T05:20:12;100358.53;;;20.68;41.53
78123;BME280;67376;44.802;10.332;2023-11-21T05:22:38;100365.84;;;20.67;42.01
78123;BME280;67376;44.802;10.332;2023-11-21T05:25:05;100372.91;;;20.68;42.11
78123;BME280;67376;44.802;10.332;2023-11-21T05:27:30;100365.84;;;20.67;41.99
78123;BME280;67376;44.802;10.332;2023-11-21T05:29:56;100377.50;;;20.68;42.13
78123;BME280;67376;44.802;10.332;2023-11-21T05:32:21;100375.63;;;20.68;42.04
78123;BME280;67376;44.802;10.332;2023-11-21T05:34:47;100365.84;;;20.67;41.97
78123;BME280;67376;44.802;10.332;2023-11-21T05:37:13;100363.94;;;20.68;42.21
78123;BME280;67376;44.802;10.332;2023-11-21T05:39:38;100355.00;;;20.67;41.71
78123;BME280;67376;44.802;10.332;2023-11-21T05:42:03;100351.47;;;20.67;42.15
78123;BME280;67376;44.802;10.332;2023-11-21T05:44:29;100347.69;;;20.68;42.21
78123;BME280;67376;44.802;10.332;2023-11-21T05:46:54;100357.47;;;20.69;42.08
78123;BME280;67376;44.802;10.332;2023-11-21T05:49:20;100351.22;;;20.68;41.78
78123;BME280;67376;44.802;10.332;2023-11-21T05:51:47;100369.13;;;20.69;41.93
78123;BME280;67376;44.802;10.332;2023-11-21T05:54:12;100365.59;;;20.69;42.26
78123;BME280;67376;44.802;10.332;2023-11-21T05:56:37;100370.19;;;20.68;42.43
78123;BME280;67376;44.802;10.332;2023-11-21T05:59:02;100371.84;;;20.69;42.01
78123;BME280;67376;44.802;10.332;2023-11-21T06:01:28;100363.72;;;20.69;42.16
78123;BME280;67376;44.802;10.332;2023-11-21T06:03:54;100365.34;;;20.70;41.98
78123;BME280;67376;44.802;10.332;2023-11-21T06:06:20;100372.41;;;20.71;42.08
78123;BME280;67376;44.802;10.332;2023-11-21T06:08:47;100371.59;;;20.71;42.20
78123;BME280;67376;44.802;10.332;2023-11-21T06:11:12;100365.09;;;20.72;42.49
78123;BME280;67376;44.802;10.332;2023-11-21T06:13:39;100364.28;;;20.71;42.00
78123;BME280;67376;44.802;10.332;2023-11-21T06:16:04;100366.75;;;20.73;42.46
78123;BME280;67376;44.802;10.332;2023-11-21T06:18:29;100368.63;;;20.72;42.29
78123;BME280;67376;44.802;10.332;2023-11-21T06:20:55;100373.00;;;20.73;42.43
78123;BME280;67376;44.802;10.332;2023-11-21T06:23:20;100364.03;;;20.73;42.05
78123;BME280;67376;44.802;10.332;2023-11-21T06:25:45;100363.22;;;20.72;41.53
78123;BME280;67376;44.802;10.332;2023-11-21T06:28:10;100354.41;;;20.65;40.89
78123;BME280;67376;44.802;10.332;2023-11-21T06:30:36;100352.59;;;20.54;40.18
78123;BME280;67376;44.802;10.332;2023-11-21T06:33:01;100348.00;;;20.38;40.16
78123;BME280;67376;44.802;10.332;2023-11-21T06:35:27;100346.06;;;20.22;40.63
78123;BME280;67376;44.802;10.332;2023-11-21T06:37:55;100340.38;;;20.06;40.10
78123;BME280;67376;44.802;10.332;2023-11-21T06:40:20;100340.34;;;19.90;40.54
78123;BME280;67376;44.802;10.332;2023-11-21T06:42:45;100339.78;;;19.76;40.77
78123;BME280;67376;44.802;10.332;2023-11-21T06:45:12;100343.63;;;19.63;40.95
78123;BME280;67376;44.802;10.332;2023-11-21T06:47:37;100330.94;;;19.52;41.47
78123;BME280;67376;44.802;10.332;2023-11-21T06:50:03;100330.00;;;19.46;42.15
78123;BME280;67376;44.802;10.332;2023-11-21T06:52:28;100334.81;;;19.44;43.14
78123;BME280;67376;44.802;10.332;2023-11-21T06:54:54;100337.53;;;19.44;42.82
78123;BME280;67376;44.802;10.332;2023-11-21T06:57:19;100331.06;;;19.45;42.88
78123;BME280;67376;44.802;10.332;2023-11-21T06:59:45;100341.41;;;19.49;43.64
78123;BME280;67376;44.802;10.332;2023-11-21T07:02:10;100339.91;;;19.53;42.81
78123;BME280;67376;44.802;10.332;2023-11-21T07:04:35;100342.13;;;19.56;43.43
78123;BME280;67376;44.802;10.332;2023-11-21T07:07:02;100337.88;;;19.60;43.76
78123;BME280;67376;44.802;10.332;2023-11-21T07:09:27;100334.69;;;19.63;43.15
78123;BME280;67376;44.802;10.332;2023-11-21T07:11:53;100326.88;;;19.66;42.75
78123;BME280;67376;44.802;10.332;2023-11-21T07:14:19;100319.91;;;19.70;43.76
78123;BME280;67376;44.802;10.332;2023-11-21T07:16:44;100319.44;;;19.73;42.76
78123;BME280;67376;44.802;10.332;2023-11-21T07:19:10;100325.19;;;19.77;43.60
78123;BME280;67376;44.802;10.332;2023-11-21T07:21:37;100320.09;;;19.81;43.12
78123;BME280;67376;44.802;10.332;2023-11-21T07:24:03;100326.94;;;19.83;42.85
78123;BME280;67376;44.802;10.332;2023-11-21T07:26:29;100321.84;;;19.87;43.17
78123;BME280;67376;44.802;10.332;2023-11-21T07:28:54;100317.84;;;19.89;42.71
78123;BME280;67376;44.802;10.332;2023-11-21T07:31:19;100329.25;;;19.91;43.47
78123;BME280;67376;44.802;10.332;2023-11-21T07:33:48;100323.34;;;19.94;42.70
78123;BME280;67376;44.802;10.332;2023-11-21T07:36:13;100323.69;;;19.98;42.51
78123;BME280;67376;44.802;10.332;2023-11-21T07:38:39;100329.69;;;20.00;42.65
78123;BME280;67376;44.802;10.332;2023-11-21T07:41:05;100332.97;;;20.02;43.26
78123;BME280;67376;44.802;10.332;2023-11-21T07:43:30;100328.13;;;20.04;42.53
78123;BME280;67376;44.802;10.332;2023-11-21T07:46:00;100329.53;;;20.06;42.58
78123;BME280;67376;44.802;10.332;2023-11-21T07:48:25;100332.00;;;20.08;42.83
78123;BME280;67376;44.802;10.332;2023-11-21T07:50:51;100327.16;;;20.10;43.13
78123;BME280;67376;44.802;10.332;2023-11-21T07:53:16;100332.34;;;20.11;43.07
78123;BME280;67376;44.802;10.332;2023-11-21T07:55:41;100330.22;;;20.14;42.80
78123;BME280;67376;44.802;10.332;2023-11-21T07:58:07;100339.75;;;20.16;42.77
78123;BME280;67376;44.802;10.332;2023-11-21T08:00:32;100338.66;;;20.17;42.38
78123;BME280;67376;44.802;10.332;2023-11-21T08:02:58;100345.50;;;20.20;43.03
78123;BME280;67376;44.802;10.332;2023-11-21T08:05:23;100350.69;;;20.21;42.57
78123;BME280;67376;44.802;10.332;2023-11-21T08:07:49;100350.41;;;20.23;42.96
78123;BME280;67376;44.802;10.332;2023-11-21T08:10:15;100349.34;;;20.24;43.10
78123;BME280;67376;44.802;10.332;2023-11-21T08:12:41;100342.84;;;20.25;42.30
78123;BME280;67376;44.802;10.332;2023-11-21T08:15:07;100341.78;;;20.26;43.13
78123;BME280;67376;44.802;10.332;2023-11-21T08:17:34;100343.19;;;20.28;42.46
78123;BME280;67376;44.802;10.332;2023-11-21T08:20:00;100344.81;;;20.29;42.38
78123;BME280;67376;44.802;10.332;2023-11-21T08:22:25;100335.63;;;20.30;42.32
78123;BME280;67376;44.802;10.332;2023-11-21T08:24:50;100340.81;;;20.32;42.58
78123;BME280;67376;44.802;10.332;2023-11-21T08:27:16;100341.63;;;20.32;42.43
78123;BME280;67376;44.802;10.332;2023-11-21T08:29:41;100337.59;;;20.35;42.56
78123;BME280;67376;44.802;10.332;2023-11-21T08:32:07;100341.97;;;20.36;42.23
78123;BME280;67376;44.802;10.332;2023-11-21T08:34:32;100337.34;;;20.36;42.47
78123;BME280;67376;44.802;10.332;2023-11-21T08:36:57;100334.44;;;20.38;42.43
78123;BME280;67376;44.802;10.332;2023-11-21T08:39:22;100335.25;;;20.38;42.16
78123;BME280;67376;44.802;10.332;2023-11-21T08:41:49;100346.91;;;20.39;42.13
78123;BME280;67376;44.802;10.332;2023-11-21T08:44:15;100348.56;;;20.40;42.43
78123;BME280;67376;44.802;10.332;2023-11-21T08:46:43;100351.03;;;20.41;42.60
78123;BME280;67376;44.802;10.332;2023-11-21T08:49:10;100349.16;;;20.42;42.45
78123;BME280;67376;44.802;10.332;2023-11-21T08:51:36;100339.94;;;20.43;42.32
78123;BME280;67376;44.802;10.332;2023-11-21T08:54:01;100333.69;;;20.42;42.64
78123;BME280;67376;44.802;10.332;2023-11-21T08:56:29;100339.69;;;20.44;42.34
78123;BME280;67376;44.802;10.332;2023-11-21T08:58:54;100345.13;;;20.44;42.34
78123;BME280;67376;44.802;10.332;2023-11-21T09:01:20;100348.66;;;20.45;42.50
78123;BME280;67376;44.802;10.332;2023-11-21T09:03:46;100360.06;;;20.47;42.31
78123;BME280;67376;44.802;10.332;2023-11-21T09:06:12;100357.38;;;20.47;42.02
78123;BME280;67376;44.802;10.332;2023-11-21T09:08:37;100360.91;;;20.48;42.05
78123;BME280;67376;44.802;10.332;2023-11-21T09:11:03;100353.59;;;20.48;42.11
78123;BME280;67376;44.802;10.332;2023-11-21T09:13:28;100361.47;;;20.50;42.61
78123;BME280;67376;44.802;10.332;2023-11-21T09:15:54;100352.53;;;20.49;42.56
78123;BME280;67376;44.802;10.332;2023-11-21T09:18:20;100347.09;;;20.49;42.26
78123;BME280;67376;44.802;10.332;2023-11-21T09:20:45;100354.16;;;20.50;42.24
78123;BME280;67376;44.802;10.332;2023-11-21T09:23:10;100354.16;;;20.50;42.73
78123;BME280;67376;44.802;10.332;2023-11-21T09:25:35;100362.28;;;20.50;42.55
78123;BME280;67376;44.802;10.332;2023-11-21T09:28:02;100363.94;;;20.51;42.63
78123;BME280;67376;44.802;10.332;2023-11-21T09:30:30;100356.63;;;20.52;42.60
78123;BME280;67376;44.802;10.332;2023-11-21T09:32:55;100348.50;;;20.52;42.19
78123;BME280;67376;44.802;10.332;2023-11-21T09:35:21;100341.19;;;20.52;42.48
78123;BME280;67376;44.802;10.332;2023-11-21T09:37:46;100341.19;;;20.52;41.81
78123;BME280;67376;44.802;10.332;2023-11-21T09:40:12;100338.22;;;20.54;41.88
78123;BME280;67376;44.802;10.332;2023-11-21T09:42:56;100328.44;;;20.53;42.52
78123;BME280;67376;44.802;10.332;2023-11-21T09:45:25;100315.69;;;20.53;42.51
78123;BME280;67376;44.802;10.332;2023-11-21T09:47:52;100320.31;;;20.53;42.38
78123;BME280;67376;44.802;10.332;2023-11-21T09:50:18;100328.19;;;20.54;42.23
78123;BME280;67376;44.802;10.332;2023-11-21T09:55:18;100337.41;;;20.53;42.05
78123;BME280;67376;44.802;10.332;2023-11-21T09:57:46;100335.50;;;20.54;41.89
78123;BME280;67376;44.802;10.332;2023-11-21T10:00:13;100326.56;;;20.53;42.63
78123;BME280;67376;44.802;10.332;2023-11-21T10:02:42;100314.63;;;20.54;41.54
78123;BME280;67376;44.802;10.332;2023-11-21T10:05:08;100305.69;;;20.54;42.46
78123;BME280;67376;44.802;10.332;2023-11-21T10:07:36;100307.31;;;20.55;42.10
78123;BME280;67376;44.802;10.332;2023-11-21T10:10:04;100304.59;;;20.55;42.36
78123;BME280;67376;44.802;10.332;2023-11-21T10:12:29;100298.13;;;20.56;42.42
78123;BME280;67376;44.802;10.332;2023-11-21T10:14:56;100289.97;;;20.56;41.90
78123;BME280;67376;44.802;10.332;2023-11-21T10:17:23;100281.84;;;20.56;42.00
78123;BME280;67376;44.802;10.332;2023-11-21T10:19:49;100281.84;;;20.56;42.25
78123;BME280;67376;44.802;10.332;2023-11-21T10:22:15;100282.66;;;20.56;42.32
78123;BME280;67376;44.802;10.332;2023-11-21T10:24:41;100266.38;;;20.56;42.38
78123;BME280;67376;44.802;10.332;2023-11-21T10:27:08;100265.31;;;20.57;42.01
78123;BME280;67376;44.802;10.332;2023-11-21T10:29:33;100259.91;;;20.57;42.12
78123;BME280;67376;44.802;10.332;2023-11-21T10:32:01;100256.38;;;20.57;42.53
78123;BME280;67376;44.802;10.332;2023-11-21T10:34:26;100259.91;;;20.57;42.58
78123;BME280;67376;44.802;10.332;2023-11-21T10:36:52;100263.44;;;20.58;42.50
78123;BME280;67376;44.802;10.332;2023-11-21T10:39:21;100251.50;;;20.59;42.45
78123;BME280;67376;44.802;10.332;2023-11-21T10:41:49;100254.22;;;20.59;42.29
78123;BME280;67376;44.802;10.332;2023-11-21T10:44:14;100251.50;;;20.59;42.27
78123;BME280;67376;44.802;10.332;2023-11-21T10:46:45;100255.03;;;20.59;42.45
78123;BME280;67376;44.802;10.332;2023-11-21T10:49:15;100255.03;;;20.59;42.50
78123;BME280;67376;44.802;10.332;2023-11-21T10:51:43;100257.75;;;20.59;42.03
78123;BME280;67376;44.802;10.332;2023-11-21T10:54:08;100252.34;;;20.59;42.34
78123;BME280;67376;44.802;10.332;2023-11-21T10:56:34;100246.66;;;20.61;42.17
78123;BME280;67376;44.802;10.332;2023-11-21T10:59:05;100239.59;;;20.60;42.29
78123;BME280;67376;44.802;10.332;2023-11-21T11:01:32;100242.06;;;20.61;42.03
78123;BME280;67376;44.802;10.332;2023-11-21T11:03:57;100252.91;;;20.61;42.57
78123;BME280;67376;44.802;10.332;2023-11-21T11:06:23;100256.44;;;20.62;41.87
78123;BME280;67376;44.802;10.332;2023-11-21T11:08:51;100254.53;;;20.62;42.30
78123;BME280;67376;44.802;10.332;2023-11-21T11:11:16;100259.16;;;20.62;41.93
78123;BME280;67376;44.802;10.332;2023-11-21T11:13:43;100257.25;;;20.62;42.06
78123;BME280;67376;44.802;10.332;2023-11-21T11:16:10;100257.25;;;20.62;42.20
78123;BME280;67376;44.802;10.332;2023-11-21T11:18:37;100258.91;;;20.63;42.36
78123;BME280;67376;44.802;10.332;2023-11-21T11:23:46;100251.84;;;20.62;42.00
78123;BME280;67376;44.802;10.332;2023-11-21T11:26:42;100248.06;;;20.63;41.98
78123;BME280;67376;44.802;10.332;2023-11-21T11:29:30;100241.56;;;20.64;42.21
78123;BME280;67376;44.802;10.332;2023-11-21T11:35:22;100255.13;;;20.64;41.97
78123;BME280;67376;44.802;10.332;2023-11-21T11:37:20;100251.59;;;20.64;42.28
78123;BME280;67376;44.802;10.332;2023-11-21T11:39:45;100256.75;;;20.65;41.93
78123;BME280;67376;44.802;10.332;2023-11-21T11:42:14;100260.53;;;20.64;42.16
78123;BME280;67376;44.802;10.332;2023-11-21T11:52:42;100258.66;;;20.65;42.15
78123;BME280;67376;44.802;10.332;2023-11-21T11:55:09;100256.75;;;20.65;41.88
78123;BME280;67376;44.802;10.332;2023-11-21T11:57:35;100253.22;;;20.65;41.84
78123;BME280;67376;44.802;10.332;2023-11-21T12:02:35;100252.16;;;20.66;41.89
78123;BME280;67376;44.802;10.332;2023-11-21T12:05:00;100251.91;;;20.67;42.42
78123;BME280;67376;44.802;10.332;2023-11-21T12:07:38;100256.50;;;20.67;41.84
78123;BME280;67376;44.802;10.332;2023-11-21T12:10:04;100259.22;;;20.67;41.98
78123;BME280;67376;44.802;10.332;2023-11-21T12:12:30;100260.88;;;20.68;42.23
78123;BME280;67376;44.802;10.332;2023-11-21T12:14:57;100265.47;;;20.67;41.76
78123;BME280;67376;44.802;10.332;2023-11-21T12:17:23;100256.25;;;20.68;42.22
78123;BME280;67376;44.802;10.332;2023-11-21T12:19:49;100260.06;;;20.67;42.29
78123;BME280;67376;44.802;10.332;2023-11-21T12:22:17;100252.72;;;20.68;41.62
78123;BME280;67376;44.802;10.332;2023-11-21T12:24:43;100253.56;;;20.68;42.18
78123;BME280;67376;44.802;10.332;2023-11-21T12:27:09;100259.81;;;20.69;42.01
78123;BME280;67376;44.802;10.332;2023-11-21T12:29:34;100243.53;;;20.69;41.63
78123;BME280;67376;44.802;10.332;2023-11-21T12:31:59;100240.81;;;20.69;41.67
78123;BME280;67376;44.802;10.332;2023-11-21T12:34:24;100238.91;;;20.69;41.60
78123;BME280;67376;44.802;10.332;2023-11-21T12:36:50;100242.44;;;20.70;41.79
78123;BME280;67376;44.802;10.332;2023-11-21T12:39:16;100242.44;;;20.70;41.95
78123;BME280;67376;44.802;10.332;2023-11-21T12:41:42;100241.63;;;20.69;41.86
78123;BME280;67376;44.802;10.332;2023-11-21T12:44:12;100250.59;;;20.70;42.29
78123;BME280;67376;44.802;10.332;2023-11-21T12:46:40;100246.81;;;20.71;41.61
78123;BME280;67376;44.802;10.332;2023-11-21T12:49:05;100240.56;;;20.70;41.55
78123;BME280;67376;44.802;10.332;2023-11-21T12:51:31;100232.41;;;20.70;41.78
78123;BME280;67376;44.802;10.332;2023-11-21T12:53:56;100225.09;;;20.71;41.47